createdAt,value
2023-03-12T00:00:29.018Z,0.95
2023-03-12T00:02:57.347Z,0.77
2023-03-12T00:05:28.781Z,0.85
2023-03-12T00:08:00.265Z,0.75
2023-03-12T00:10:28.479Z,0.80
2023-03-12T00:12:56.908Z,0.82
2023-03-12T00:15:25.131Z,0.98
2023-03-12T00:17:53.185Z,0.80
2023-03-12T00:20:22.223Z,0.60
2023-03-12T00:22:50.968Z,1.00
2023-03-12T00:25:19.251Z,1.00
2023-03-12T00:27:47.491Z,0.93
2023-03-12T00:30:15.723Z,0.80
2023-03-12T00:32:43.713Z,1.00
2023-03-12T00:35:11.786Z,0.70
2023-03-12T00:37:40.048Z,1.02
2023-03-12T00:40:10.554Z,0.82
2023-03-12T00:42:39.133Z,0.68
2023-03-12T00:45:07.614Z,0.93
2023-03-12T00:47:35.667Z,0.90
2023-03-12T00:50:03.818Z,1.63
2023-03-12T00:52:31.887Z,0.90
2023-03-12T00:55:00.019Z,0.85
2023-03-12T00:57:28.532Z,0.88
2023-03-12T00:59:56.604Z,1.08
2023-03-12T01:02:24.743Z,0.70
2023-03-12T01:04:52.511Z,0.80
2023-03-12T01:07:20.593Z,1.00
2023-03-12T01:09:48.476Z,1.08
2023-03-12T01:12:16.400Z,1.27
2023-03-12T01:14:44.585Z,1.00
2023-03-12T01:17:12.585Z,1.50
2023-03-12T01:19:40.619Z,1.20
2023-03-12T01:22:08.844Z,1.27
2023-03-12T01:24:36.883Z,1.38
2023-03-12T01:27:06.265Z,0.77
2023-03-12T01:29:34.284Z,1.00
2023-03-12T01:32:02.826Z,1.05
2023-03-12T01:34:31.995Z,0.93
2023-03-12T01:37:00.146Z,0.80
2023-03-12T01:39:28.177Z,1.30
2023-03-12T01:41:56.065Z,1.13
2023-03-12T01:44:24.062Z,1.33
2023-03-12T01:46:52.089Z,2.47
2023-03-12T01:49:32.543Z,3.45
2023-03-12T01:52:21.591Z,2.42
2023-03-12T01:55:04.207Z,1.45
2023-03-12T01:57:55.102Z,1.90
2023-03-12T02:00:25.562Z,1.30
2023-03-12T02:02:59.986Z,1.27
2023-03-12T02:05:53.854Z,1.25
2023-03-12T02:08:23.494Z,1.00
2023-03-12T02:10:52.050Z,1.13
2023-03-12T02:13:19.938Z,1.02
2023-03-12T02:15:49.076Z,1.20
2023-03-12T02:18:19.173Z,2.05
2023-03-12T02:20:50.236Z,1.60
2023-03-12T02:23:38.696Z,0.98
2023-03-12T02:26:07.835Z,1.08
2023-03-12T02:28:44.375Z,1.00
2023-03-12T02:31:18.495Z,0.60
2023-03-12T02:33:46.384Z,0.90
2023-03-12T02:36:14.317Z,0.90
2023-03-12T02:38:52.011Z,1.85
2023-03-12T02:41:33.523Z,0.63
2023-03-12T02:44:38.045Z,0.75
2023-03-12T02:47:06.277Z,0.90
2023-03-12T02:49:35.914Z,1.00
2023-03-12T02:52:05.116Z,1.10
2023-03-12T02:54:33.149Z,0.73
2023-03-12T02:57:01.115Z,0.65
2023-03-12T02:59:31.637Z,0.63
2023-03-12T03:02:02.056Z,1.20
2023-03-12T03:04:32.124Z,0.90
2023-03-12T03:07:00.424Z,0.80
2023-03-12T03:09:28.801Z,0.90
2023-03-12T03:11:56.979Z,0.85
2023-03-12T03:14:26.712Z,0.70
2023-03-12T03:16:55.346Z,0.90
2023-03-12T03:19:27.089Z,1.20
2023-03-12T03:21:55.027Z,0.98
2023-03-12T03:24:22.793Z,0.73
2023-03-12T03:26:50.689Z,0.88
2023-03-12T03:29:18.651Z,0.82
2023-03-12T03:31:46.918Z,0.80
2023-03-12T03:34:14.770Z,1.40
2023-03-12T03:36:42.721Z,1.08
2023-03-12T03:39:14.636Z,0.70
2023-03-12T03:41:42.628Z,0.90
2023-03-12T03:44:11.290Z,0.90
2023-03-12T03:46:40.139Z,0.80
2023-03-12T03:49:11.314Z,0.90
2023-03-12T03:51:42.933Z,0.80
2023-03-12T03:54:14.458Z,0.80
2023-03-12T03:56:43.877Z,0.70
2023-03-12T03:59:12.733Z,0.70
2023-03-12T04:01:42.533Z,0.93
2023-03-12T04:04:10.515Z,0.75
2023-03-12T04:06:39.287Z,0.80
2023-03-12T04:09:07.814Z,1.00
2023-03-12T04:11:37.508Z,0.90
2023-03-12T04:14:07.090Z,0.82
2023-03-12T04:16:37.735Z,0.70
2023-03-12T04:19:06.136Z,0.77
2023-03-12T04:21:33.957Z,0.88
2023-03-12T04:24:01.927Z,0.88
2023-03-12T04:26:33.482Z,0.90
2023-03-12T04:29:02.197Z,1.40
2023-03-12T04:31:30.289Z,0.60
2023-03-12T04:33:58.318Z,0.80
2023-03-12T04:36:26.586Z,0.90
2023-03-12T04:38:55.794Z,1.00
2023-03-12T04:41:29.056Z,0.88
2023-03-12T04:44:07.851Z,1.00
2023-03-12T04:46:44.571Z,1.00
2023-03-12T04:49:16.306Z,0.85
2023-03-12T04:51:44.613Z,1.00
2023-03-12T04:54:12.594Z,0.93
2023-03-12T04:56:42.434Z,0.80
2023-03-12T04:59:10.417Z,0.70
2023-03-12T05:05:21.142Z,0.70
2023-03-12T05:07:49.240Z,0.75
2023-03-12T05:10:17.533Z,1.10
2023-03-12T05:12:45.587Z,0.73
2023-03-12T05:15:13.739Z,0.75
2023-03-12T05:17:41.572Z,1.00
2023-03-12T05:20:11.030Z,0.70
2023-03-12T05:22:39.690Z,0.95
2023-03-12T05:25:08.995Z,1.20
2023-03-12T05:27:40.172Z,1.33
2023-03-12T05:30:09.960Z,1.00
2023-03-12T05:32:38.715Z,0.88
2023-03-12T05:35:07.277Z,1.08
2023-03-12T05:37:35.738Z,0.68
2023-03-12T05:40:04.518Z,1.15
2023-03-12T05:42:34.895Z,1.58
2023-03-12T05:45:03.930Z,1.23
2023-03-12T05:47:32.894Z,1.00
2023-03-12T05:50:01.038Z,1.30
2023-03-12T05:52:28.987Z,1.23
2023-03-12T05:54:58.194Z,1.10
2023-03-12T05:57:26.262Z,0.98
2023-03-12T05:59:54.358Z,1.17
2023-03-12T06:02:22.535Z,1.17
2023-03-12T06:04:50.655Z,1.00
2023-03-12T06:07:18.589Z,1.20
2023-03-12T06:09:46.642Z,1.85
2023-03-12T06:12:15.730Z,1.35
2023-03-12T06:14:43.820Z,1.40
2023-03-12T06:17:12.011Z,1.70
2023-03-12T06:19:41.079Z,1.17
2023-03-12T06:22:08.819Z,1.23
2023-03-12T06:24:36.869Z,2.03
2023-03-12T06:27:08.047Z,1.38
2023-03-12T06:29:35.949Z,1.23
2023-03-12T06:32:03.759Z,1.40
2023-03-12T06:34:31.573Z,1.17
2023-03-12T06:36:59.653Z,1.30
2023-03-12T06:39:27.754Z,1.33
2023-03-12T06:41:55.937Z,1.25
2023-03-12T06:44:24.042Z,1.30
2023-03-12T06:46:52.487Z,1.30
2023-03-12T06:49:20.499Z,1.50
2023-03-12T06:51:48.291Z,1.45
2023-03-12T06:54:16.103Z,1.60
2023-03-12T06:56:44.486Z,1.80
2023-03-12T06:59:12.485Z,1.90
2023-03-12T07:01:40.746Z,1.60
2023-03-12T07:04:08.797Z,1.30
2023-03-12T07:06:36.549Z,1.38
2023-03-12T07:09:05.326Z,1.63
2023-03-12T07:11:36.312Z,1.52
2023-03-12T07:14:04.119Z,1.27
2023-03-12T07:16:31.943Z,1.48
2023-03-12T07:18:59.889Z,1.45
2023-03-12T07:21:27.763Z,2.00
2023-03-12T07:23:55.781Z,1.88
2023-03-12T07:26:23.721Z,2.20
2023-03-12T07:28:51.905Z,2.25
2023-03-12T07:31:20.072Z,1.85
2023-03-12T07:33:48.335Z,2.05
2023-03-12T07:36:16.565Z,2.00
2023-03-12T07:38:44.620Z,2.00
2023-03-12T07:41:12.438Z,2.22
2023-03-12T07:43:40.955Z,1.92
2023-03-12T07:46:08.907Z,3.08
2023-03-12T07:48:36.848Z,2.00
2023-03-12T07:51:04.938Z,2.85
2023-03-12T07:53:32.935Z,2.63
2023-03-12T07:56:00.993Z,1.70
2023-03-12T07:58:29.190Z,2.20
2023-03-12T08:00:57.426Z,2.33
2023-03-12T08:03:26.115Z,1.98
2023-03-12T08:05:59.046Z,2.15
2023-03-12T08:08:27.455Z,1.98
2023-03-12T08:10:55.792Z,1.90
2023-03-12T08:13:24.640Z,1.60
2023-03-12T08:15:54.012Z,2.10
2023-03-12T08:18:22.731Z,1.90
2023-03-12T08:20:54.853Z,2.17
2023-03-12T08:23:23.572Z,1.73
2023-03-12T08:25:51.630Z,1.90
2023-03-12T08:28:20.748Z,2.22
2023-03-12T08:30:50.841Z,1.70
2023-03-12T08:33:18.995Z,1.95
2023-03-12T08:35:47.277Z,1.95
2023-03-12T08:38:15.386Z,2.00
2023-03-12T08:40:43.812Z,1.70
2023-03-12T08:43:12.004Z,2.40
2023-03-12T08:45:40.118Z,1.88
2023-03-12T08:48:15.718Z,1.90
2023-03-12T08:50:43.666Z,1.92
2023-03-12T08:53:12.183Z,1.75
2023-03-12T08:55:39.937Z,2.00
2023-03-12T08:58:08.104Z,3.17
2023-03-12T09:00:36.322Z,1.70
2023-03-12T09:03:04.346Z,2.30
2023-03-12T09:05:32.776Z,2.15
2023-03-12T09:08:00.703Z,2.53
2023-03-12T09:10:30.936Z,2.08
2023-03-12T09:12:59.166Z,2.40
2023-03-12T09:15:27.316Z,2.30
2023-03-12T09:17:56.166Z,2.20
2023-03-12T09:20:25.166Z,2.17
2023-03-12T09:22:53.099Z,1.90
2023-03-12T09:25:23.064Z,2.33
2023-03-12T09:27:51.039Z,2.20
2023-03-12T09:30:20.679Z,2.30
2023-03-12T09:32:49.114Z,2.20
2023-03-12T09:35:17.581Z,2.03
2023-03-12T09:37:50.298Z,2.03
2023-03-12T09:40:24.333Z,2.40
2023-03-12T09:43:17.570Z,1.80
2023-03-12T09:45:46.909Z,1.90
2023-03-12T09:48:28.767Z,2.05
2023-03-12T09:53:32.226Z,1.80
2023-03-12T09:56:02.870Z,1.58
2023-03-12T09:58:32.973Z,1.90
2023-03-12T10:01:31.651Z,2.22
2023-03-12T10:04:45.463Z,1.77
2023-03-12T10:07:34.503Z,1.65
2023-03-12T10:10:20.145Z,1.73
2023-03-12T10:13:06.358Z,1.70
2023-03-12T10:15:45.907Z,1.50
2023-03-12T10:18:39.050Z,1.70
2023-03-12T10:21:50.024Z,1.50
2023-03-12T10:24:48.165Z,1.75
2023-03-12T10:27:17.881Z,1.45
2023-03-12T10:29:48.593Z,1.95
2023-03-12T10:32:28.288Z,1.70
2023-03-12T10:35:03.291Z,1.80
2023-03-12T10:37:39.519Z,1.60
2023-03-12T10:40:12.117Z,1.33
2023-03-12T10:42:40.618Z,1.50
2023-03-12T10:45:41.164Z,1.17
2023-03-12T10:48:11.965Z,1.20
2023-03-12T10:50:41.484Z,0.90
2023-03-12T10:53:45.178Z,0.90
2023-03-12T10:56:16.438Z,0.80
2023-03-12T10:58:45.339Z,0.60
2023-03-12T11:01:16.570Z,0.80
2023-03-12T11:03:46.176Z,0.80
2023-03-12T11:06:29.288Z,0.82
2023-03-12T11:09:18.650Z,1.00
2023-03-12T11:11:51.459Z,0.65
2023-03-12T11:14:25.223Z,0.85
2023-03-12T11:16:54.270Z,0.70
2023-03-12T11:19:35.549Z,0.70
2023-03-12T11:22:09.045Z,0.88
2023-03-12T11:24:37.122Z,0.70
2023-03-12T11:27:23.396Z,0.90
2023-03-12T11:29:52.045Z,0.80
2023-03-12T11:32:39.804Z,0.70
2023-03-12T11:35:12.681Z,0.70
2023-03-12T11:37:55.944Z,0.60
2023-03-12T11:40:42.678Z,0.90
2023-03-12T11:43:42.726Z,0.90
2023-03-12T11:46:30.157Z,0.95
2023-03-12T11:49:14.912Z,1.00
2023-03-12T11:52:17.687Z,0.85
2023-03-12T11:54:52.692Z,1.25
2023-03-12T11:57:57.941Z,0.95
2023-03-12T12:00:34.607Z,0.90
2023-03-12T12:03:38.425Z,0.82
2023-03-12T12:06:31.991Z,0.90
2023-03-12T12:09:10.952Z,0.75
2023-03-12T12:11:56.803Z,0.70
2023-03-12T12:14:43.034Z,0.98
2023-03-12T12:17:29.954Z,1.05
2023-03-12T12:20:34.762Z,1.08
2023-03-12T12:23:24.374Z,1.15
2023-03-12T12:26:02.068Z,1.42
2023-03-12T12:29:02.134Z,1.15
2023-03-12T12:31:49.974Z,1.20
2023-03-12T12:34:54.563Z,1.08
2023-03-12T12:37:44.036Z,1.20
2023-03-12T12:40:25.693Z,1.00
2023-03-12T12:43:06.854Z,1.40
2023-03-12T12:45:34.878Z,1.08
2023-03-12T12:48:06.908Z,1.17
2023-03-12T12:50:39.201Z,1.20
2023-03-12T12:53:15.255Z,1.30
2023-03-12T12:56:08.890Z,1.30
2023-03-12T12:59:08.025Z,1.10
2023-03-12T13:01:36.845Z,1.30
2023-03-12T13:04:16.450Z,1.10
2023-03-12T13:07:00.174Z,1.20
2023-03-12T13:09:46.543Z,1.40
2023-03-12T13:12:31.367Z,1.20
2023-03-12T13:15:01.168Z,1.30
2023-03-12T13:17:36.160Z,1.30
2023-03-12T13:20:12.558Z,1.20
2023-03-12T13:22:55.003Z,1.08
2023-03-12T13:25:38.511Z,1.40
2023-03-12T13:28:32.949Z,1.55
2023-03-12T13:31:20.849Z,1.10
2023-03-12T13:33:51.046Z,1.40
2023-03-12T13:36:23.956Z,1.20
2023-03-12T13:39:02.923Z,1.35
2023-03-12T13:41:39.475Z,1.33
2023-03-12T13:44:33.101Z,1.35
2023-03-12T13:47:04.086Z,1.10
2023-03-12T13:49:54.676Z,1.10
2023-03-12T13:52:31.432Z,1.02
2023-03-12T13:55:08.216Z,1.35
2023-03-12T13:57:45.877Z,1.02
2023-03-12T14:00:24.736Z,1.10
2023-03-12T14:03:02.491Z,1.20
2023-03-12T14:05:33.703Z,1.08
2023-03-12T14:08:29.421Z,1.10
2023-03-12T14:11:26.169Z,1.30
2023-03-12T14:14:30.757Z,1.13
2023-03-12T14:17:03.103Z,1.17
2023-03-12T14:19:33.860Z,1.10
2023-03-12T14:22:05.144Z,0.95
2023-03-12T14:25:04.653Z,0.95
2023-03-12T14:27:34.029Z,1.00
2023-03-12T14:30:25.482Z,1.05
2023-03-12T14:32:55.973Z,0.80
2023-03-12T14:36:19.420Z,0.80
2023-03-12T14:38:49.327Z,0.80
2023-03-12T14:41:26.605Z,0.82
2023-03-12T14:43:55.695Z,0.80
2023-03-12T14:46:24.898Z,0.90
2023-03-12T14:48:55.399Z,1.05
2023-03-12T14:51:31.374Z,1.13
2023-03-12T14:54:03.557Z,1.10
2023-03-12T14:56:38.040Z,1.23
2023-03-12T14:59:31.253Z,1.10
2023-03-12T15:02:19.655Z,1.00
2023-03-12T15:04:49.744Z,1.00
2023-03-12T15:07:21.645Z,1.25
2023-03-12T15:09:51.321Z,0.95
2023-03-12T15:12:32.223Z,1.20
2023-03-12T15:15:11.057Z,1.00
2023-03-12T15:17:39.348Z,1.00
2023-03-12T15:20:09.597Z,1.20
2023-03-12T15:22:53.549Z,1.17
2023-03-12T15:25:26.960Z,1.10
2023-03-12T15:28:15.600Z,1.13
2023-03-12T15:30:44.450Z,1.23
2023-03-12T15:33:17.910Z,1.08
2023-03-12T15:36:06.514Z,1.25
2023-03-12T15:38:35.145Z,1.58
2023-03-12T15:41:08.755Z,1.08
2023-03-12T15:43:37.944Z,1.15
2023-03-12T15:46:07.610Z,1.10
2023-03-12T15:48:40.178Z,1.27
2023-03-12T15:51:17.717Z,0.85
2023-03-12T15:53:45.579Z,1.27
2023-03-12T15:56:13.567Z,1.10
2023-03-12T15:58:42.830Z,1.20
2023-03-12T16:01:17.866Z,1.30
2023-03-12T16:03:46.750Z,1.20
2023-03-12T16:06:21.003Z,1.30
2023-03-12T16:09:00.710Z,1.13
2023-03-12T16:11:31.263Z,1.50
2023-03-12T16:14:25.854Z,1.30
2023-03-12T16:16:53.924Z,1.30
2023-03-12T16:19:24.183Z,1.58
2023-03-12T16:21:52.261Z,1.50
2023-03-12T16:24:20.173Z,1.48
2023-03-12T16:27:07.418Z,1.52
2023-03-12T16:29:38.536Z,1.73
2023-03-12T16:32:15.380Z,1.65
2023-03-12T16:34:44.449Z,1.52
2023-03-12T16:37:13.214Z,2.20
2023-03-12T16:39:41.086Z,1.40
2023-03-12T16:42:16.899Z,1.50
2023-03-12T16:44:46.458Z,1.58
2023-03-12T16:47:15.248Z,1.67
2023-03-12T16:49:44.497Z,2.13
2023-03-12T16:52:23.800Z,1.17
2023-03-12T16:54:52.771Z,1.30
2023-03-12T16:57:38.777Z,1.50
2023-03-12T17:00:09.343Z,1.33
2023-03-12T17:02:37.461Z,1.00
2023-03-12T17:05:07.032Z,1.13
2023-03-12T17:07:34.896Z,1.10
2023-03-12T17:10:02.818Z,1.13
2023-03-12T17:12:33.152Z,0.73
2023-03-12T17:15:02.715Z,0.95
2023-03-12T17:17:30.915Z,1.08
2023-03-12T17:20:00.621Z,0.80
2023-03-12T17:22:32.054Z,0.80
2023-03-12T17:25:00.285Z,1.40
2023-03-12T17:27:32.946Z,1.10
2023-03-12T17:30:00.662Z,1.30
2023-03-12T17:32:31.364Z,1.40
2023-03-12T17:35:03.277Z,1.27
2023-03-12T17:37:30.958Z,1.30
2023-03-12T17:40:01.749Z,1.60
2023-03-12T17:42:31.587Z,1.52
2023-03-12T17:44:59.567Z,2.00
2023-03-12T17:47:29.921Z,2.03
2023-03-12T17:49:59.249Z,2.70
2023-03-12T17:52:27.199Z,2.53
2023-03-12T17:54:55.002Z,2.35
2023-03-12T17:57:25.855Z,2.67
2023-03-12T17:59:53.851Z,2.83
2023-03-12T18:02:21.871Z,2.92
2023-03-12T18:04:49.990Z,2.80
2023-03-12T18:07:18.064Z,3.00
2023-03-12T18:09:46.196Z,4.47
2023-03-12T18:12:14.116Z,3.10
2023-03-12T18:14:42.076Z,3.35
2023-03-12T18:17:10.061Z,3.40
2023-03-12T18:19:38.264Z,3.17
2023-03-12T18:22:07.430Z,3.95
2023-03-12T18:24:36.111Z,3.78
2023-03-12T18:27:03.983Z,3.83
2023-03-12T18:29:34.767Z,3.75
2023-03-12T18:32:03.400Z,3.78
2023-03-12T18:34:31.456Z,4.07
2023-03-12T18:36:59.350Z,4.72
2023-03-12T18:39:27.389Z,3.95
2023-03-12T18:41:58.473Z,4.22
2023-03-12T18:44:26.308Z,3.80
2023-03-12T18:46:54.225Z,3.90
2023-03-12T18:49:22.385Z,4.50
2023-03-12T18:51:54.716Z,4.05
2023-03-12T18:54:24.664Z,4.00
2023-03-12T18:56:53.036Z,3.72
2023-03-12T18:59:21.404Z,3.60
2023-03-12T19:01:49.423Z,2.72
2023-03-12T19:04:19.089Z,2.75
2023-03-12T19:06:51.609Z,3.13
2023-03-12T19:09:20.104Z,3.00
2023-03-12T19:11:51.489Z,3.53
2023-03-12T19:14:19.256Z,3.40
2023-03-12T19:16:47.678Z,3.00
2023-03-12T19:19:15.899Z,3.85
2023-03-12T19:21:43.878Z,3.53
2023-03-12T19:24:11.888Z,2.70
2023-03-12T19:26:39.771Z,2.63
2023-03-12T19:29:07.609Z,3.88
2023-03-12T19:31:35.564Z,2.80
2023-03-12T19:34:03.408Z,3.35
2023-03-12T19:36:31.464Z,3.28
2023-03-12T19:38:59.815Z,3.47
2023-03-12T19:43:59.205Z,2.95
2023-03-12T19:46:27.106Z,2.97
2023-03-12T19:48:54.976Z,3.20
2023-03-12T19:51:22.940Z,2.60
2023-03-12T19:53:50.658Z,2.90
2023-03-12T19:56:18.638Z,3.25
2023-03-12T19:58:46.608Z,3.28
2023-03-12T20:01:14.541Z,3.17
2023-03-12T20:03:43.857Z,3.55
2023-03-12T20:06:12.854Z,3.53
2023-03-12T20:08:41.019Z,3.25
2023-03-12T20:11:10.837Z,3.53
2023-03-12T20:13:39.748Z,3.60
2023-03-12T20:16:08.275Z,3.85
2023-03-12T20:18:36.370Z,3.75
2023-03-12T20:21:04.451Z,3.50
2023-03-12T20:23:33.090Z,4.13
2023-03-12T20:26:01.000Z,3.40
2023-03-12T20:28:29.214Z,3.58
2023-03-12T20:30:57.095Z,3.25
2023-03-12T20:33:25.272Z,3.55
2023-03-12T20:35:56.421Z,3.65
2023-03-12T20:38:24.477Z,3.47
2023-03-12T20:40:52.329Z,2.90
2023-03-12T20:43:20.364Z,3.25
2023-03-12T20:45:49.573Z,3.33
2023-03-12T20:48:18.221Z,3.22
2023-03-12T20:50:46.399Z,4.22
2023-03-12T20:53:14.444Z,3.67
2023-03-12T20:55:42.584Z,3.40
2023-03-12T20:58:12.216Z,3.60
2023-03-12T21:00:42.996Z,3.47
2023-03-12T21:03:15.020Z,3.77
2023-03-12T21:05:44.269Z,3.58
2023-03-12T21:08:12.376Z,3.45
2023-03-12T21:10:40.444Z,3.35
2023-03-12T21:13:11.300Z,4.28
2023-03-12T21:15:39.576Z,3.63
2023-03-12T21:18:07.640Z,3.38
2023-03-12T21:20:37.649Z,3.17
2023-03-12T21:23:06.985Z,3.60
2023-03-12T21:25:39.362Z,3.20
2023-03-12T21:28:08.404Z,3.08
2023-03-12T21:30:36.931Z,3.25
2023-03-12T21:33:06.141Z,2.65
2023-03-12T21:35:34.150Z,2.75
2023-03-12T21:38:03.031Z,3.80
2023-03-12T21:40:30.968Z,3.17
2023-03-12T21:42:58.989Z,2.85
2023-03-12T21:45:26.948Z,2.60
2023-03-12T21:47:55.201Z,2.95
2023-03-12T21:50:24.105Z,2.80
2023-03-12T21:52:52.299Z,2.60
2023-03-12T21:55:20.400Z,2.63
2023-03-12T21:57:48.653Z,2.42
2023-03-12T22:00:16.922Z,3.03
2023-03-12T22:02:45.632Z,2.55
2023-03-12T22:05:14.138Z,2.35
2023-03-12T22:07:44.561Z,2.42
2023-03-12T22:10:13.021Z,2.22
2023-03-12T22:12:41.473Z,2.70
2023-03-12T22:15:10.144Z,2.67
2023-03-12T22:17:38.256Z,2.22
2023-03-12T22:20:08.394Z,3.78
2023-03-12T22:22:36.517Z,3.05
2023-03-12T22:25:07.136Z,3.97
2023-03-12T22:27:35.493Z,2.20
2023-03-12T22:30:03.556Z,2.38
2023-03-12T22:32:32.431Z,2.50
2023-03-12T22:35:00.366Z,1.95
2023-03-12T22:37:28.600Z,2.88
2023-03-12T22:40:01.797Z,2.95
2023-03-12T22:42:30.044Z,2.72
2023-03-12T22:44:58.075Z,3.63
2023-03-12T22:47:25.999Z,2.53
2023-03-12T22:49:53.756Z,3.17
2023-03-12T22:52:21.720Z,2.58
2023-03-12T22:54:50.316Z,2.47
2023-03-12T22:57:18.308Z,2.75
2023-03-12T22:59:48.422Z,2.35
2023-03-12T23:02:16.607Z,2.58
2023-03-12T23:04:44.791Z,2.92
2023-03-12T23:07:15.804Z,2.45
2023-03-12T23:09:47.657Z,2.70
2023-03-12T23:12:15.581Z,2.97
2023-03-12T23:14:43.643Z,2.45
2023-03-12T23:17:11.494Z,2.70
2023-03-12T23:19:39.349Z,2.10
2023-03-12T23:22:07.741Z,2.03
2023-03-12T23:24:38.412Z,2.67
2023-03-12T23:27:06.983Z,2.45
2023-03-12T23:29:35.900Z,2.13
2023-03-12T23:32:03.998Z,2.58
2023-03-12T23:34:36.393Z,2.50
2023-03-12T23:37:05.721Z,2.17
2023-03-12T23:39:53.568Z,3.00
2023-03-12T23:42:22.704Z,2.22
2023-03-12T23:44:50.849Z,2.70
2023-03-12T23:47:19.017Z,2.40
2023-03-12T23:49:47.015Z,2.90
2023-03-12T23:52:15.228Z,2.22
2023-03-12T23:54:43.316Z,2.65
2023-03-12T23:57:11.001Z,2.20
2023-03-12T23:59:38.740Z,2.63
